Disclaimer

Please do not use the information listed here in-flight or in-navigation, as they are not provided to us by the airports but are provided by volunteers, so they might be outdated.

Search


Regions


Airport information page

Radio informations:
Tower (TWR) - 118.4 MHz
KAVALA APP - 122.1 MHz
RDO - 5637 MHz

Airport informations:
Latitude: 40° 54' 47.90" N
Longitude: 024° 37' 09.20" E
Elevation: 18 feet - 5 meters
Operating hours: Remarks
Operating agency: Civil government, landing fees and diplomatic clearance may be required
Timezone: UTC+2(+3DT) - Last Sunday in March to last Sunday in October
Fuel: JP-4, Wide cut turbine fuel MIL Spec T-5624

Jet A1, without icing nhibitor.

Runway information:
05R/23L - 9844 x 148 feet< - >3000 x 45 meters

Recent METARs:
LGKV 171950Z 08005KT 9999 SCT025 BKN070 08/M01 Q1025
LGKV 172020Z 11006KT 9999 SCT025 BKN070 08/M01 Q1025
LGKV 172050Z 09006KT 9999 SCT025 BKN070 08/M01 Q1025

Airport on the map: